FAWC Weather

FACT METAR/TAF

[source: ADDS]
METAR
FACT 160900Z 17022KT CAVOK 24/09 Q1013 NOSIG =
TAF
TAF FACT 160400Z 1606/1712 19015KT CAVOK BECMG 1609/1611 17025KT FM161800 17019KT 9999 FEW025 FM170900 15023KT 9999 SCT025 TX25/1612Z TN17/1704Z =
SR / SS: 03:28 / 17:53 UTC (FAWC 2017-12-16)

Polls

Flying Interest Is?